sensor_id;sensor_type;location;lat;lon;timestamp;temperature;humidity
10129;DHT22;5104;50.720;7.044;2023-02-03T00:01:52;9.40;1.00
10129;DHT22;5104;50.720;7.044;2023-02-03T00:04:21;9.40;99.90
10129;DHT22;5104;50.720;7.044;2023-02-03T00:06:47;9.40;1.00
10129;DHT22;5104;50.720;7.044;2023-02-03T00:09:15;9.40;1.00
10129;DHT22;5104;50.720;7.044;2023-02-03T00:11:42;9.50;99.90
10129;DHT22;5104;50.720;7.044;2023-02-03T00:14:09;9.50;99.90
10129;DHT22;5104;50.720;7.044;2023-02-03T00:16:36;9.50;99.90
10129;DHT22;5104;50.720;7.044;2023-02-03T00:19:03;9.50;99.90
10129;DHT22;5104;50.720;7.044;2023-02-03T00:21:31;9.50;99.90
10129;DHT22;5104;50.720;7.044;2023-02-03T00:23:58;9.50;99.90
10129;DHT22;5104;50.720;7.044;2023-02-03T00:26:24;9.50;99.90
10129;DHT22;5104;50.720;7.044;2023-02-03T00:28:53;9.50;99.90
10129;DHT22;5104;50.720;7.044;2023-02-03T00:31:22;9.50;96.40
10129;DHT22;5104;50.720;7.044;2023-02-03T00:33:52;9.60;1.00
10129;DHT22;5104;50.720;7.044;2023-02-03T00:36:20;9.50;1.00
10129;DHT22;5104;50.720;7.044;2023-02-03T00:38:48;9.60;1.00
10129;DHT22;5104;50.720;7.044;2023-02-03T00:41:15;9.60;1.00
10129;DHT22;5104;50.720;7.044;2023-02-03T00:43:42;9.60;1.00
10129;DHT22;5104;50.720;7.044;2023-02-03T00:46:09;9.60;1.00
10129;DHT22;5104;50.720;7.044;2023-02-03T00:48:36;9.60;1.00
10129;DHT22;5104;50.720;7.044;2023-02-03T00:51:03;9.60;1.00
10129;DHT22;5104;50.720;7.044;2023-02-03T00:53:30;9.60;1.00
10129;DHT22;5104;50.720;7.044;2023-02-03T00:55:58;9.60;1.00
10129;DHT22;5104;50.720;7.044;2023-02-03T00:58:25;9.50;1.00
10129;DHT22;5104;50.720;7.044;2023-02-03T01:00:53;9.50;1.00
10129;DHT22;5104;50.720;7.044;2023-02-03T01:03:20;9.50;1.00
10129;DHT22;5104;50.720;7.044;2023-02-03T01:05:47;9.50;1.00
10129;DHT22;5104;50.720;7.044;2023-02-03T01:08:14;9.50;1.00
10129;DHT22;5104;50.720;7.044;2023-02-03T01:10:41;9.50;1.00
10129;DHT22;5104;50.720;7.044;2023-02-03T01:13:09;9.50;1.00
10129;DHT22;5104;50.720;7.044;2023-02-03T01:15:35;9.50;1.00
10129;DHT22;5104;50.720;7.044;2023-02-03T01:18:02;9.50;1.00
10129;DHT22;5104;50.720;7.044;2023-02-03T01:20:29;9.50;1.00
10129;DHT22;5104;50.720;7.044;2023-02-03T01:22:56;9.50;1.00
10129;DHT22;5104;50.720;7.044;2023-02-03T01:25:23;9.50;99.90
10129;DHT22;5104;50.720;7.044;2023-02-03T01:27:50;9.50;1.00
10129;DHT22;5104;50.720;7.044;2023-02-03T01:30:18;9.50;1.00
10129;DHT22;5104;50.720;7.044;2023-02-03T01:32:45;9.50;99.90
10129;DHT22;5104;50.720;7.044;2023-02-03T01:35:12;9.50;99.90
10129;DHT22;5104;50.720;7.044;2023-02-03T01:37:39;9.50;99.90
10129;DHT22;5104;50.720;7.044;2023-02-03T01:40:07;9.50;99.90
10129;DHT22;5104;50.720;7.044;2023-02-03T01:42:33;9.50;99.90
10129;DHT22;5104;50.720;7.044;2023-02-03T01:45:00;9.50;99.90
10129;DHT22;5104;50.720;7.044;2023-02-03T01:47:32;9.50;99.90
10129;DHT22;5104;50.720;7.044;2023-02-03T01:50:09;9.50;99.90
10129;DHT22;5104;50.720;7.044;2023-02-03T01:52:38;9.50;99.90
10129;DHT22;5104;50.720;7.044;2023-02-03T01:55:08;9.60;99.90
10129;DHT22;5104;50.720;7.044;2023-02-03T01:57:38;9.50;99.90
10129;DHT22;5104;50.720;7.044;2023-02-03T02:00:08;9.60;99.90
10129;DHT22;5104;50.720;7.044;2023-02-03T02:02:36;9.60;99.90
10129;DHT22;5104;50.720;7.044;2023-02-03T02:05:06;9.60;99.90
10129;DHT22;5104;50.720;7.044;2023-02-03T02:07:35;9.60;99.90
10129;DHT22;5104;50.720;7.044;2023-02-03T02:10:04;9.60;88.00
10129;DHT22;5104;50.720;7.044;2023-02-03T02:12:31;9.70;5.60
10129;DHT22;5104;50.720;7.044;2023-02-03T02:14:58;9.70;1.00
10129;DHT22;5104;50.720;7.044;2023-02-03T02:17:41;9.70;12.40
10129;DHT22;5104;50.720;7.044;2023-02-03T02:20:33;9.70;1.00
10129;DHT22;5104;50.720;7.044;2023-02-03T02:23:17;9.70;16.30
10129;DHT22;5104;50.720;7.044;2023-02-03T02:26:20;9.70;1.00
10129;DHT22;5104;50.720;7.044;2023-02-03T02:32:10;9.70;1.00
10129;DHT22;5104;50.720;7.044;2023-02-03T02:34:49;9.70;1.00
10129;DHT22;5104;50.720;7.044;2023-02-03T02:37:24;9.70;1.00
10129;DHT22;5104;50.720;7.044;2023-02-03T02:39:57;9.70;1.00
10129;DHT22;5104;50.720;7.044;2023-02-03T02:42:34;9.70;1.00
10129;DHT22;5104;50.720;7.044;2023-02-03T02:45:08;9.70;1.00
10129;DHT22;5104;50.720;7.044;2023-02-03T02:47:39;9.70;1.00
10129;DHT22;5104;50.720;7.044;2023-02-03T02:50:12;9.70;1.00
10129;DHT22;5104;50.720;7.044;2023-02-03T02:52:41;9.70;1.00
10129;DHT22;5104;50.720;7.044;2023-02-03T02:55:12;9.70;1.00
10129;DHT22;5104;50.720;7.044;2023-02-03T02:57:41;9.70;1.00
10129;DHT22;5104;50.720;7.044;2023-02-03T03:00:09;9.60;1.00
10129;DHT22;5104;50.720;7.044;2023-02-03T03:02:39;9.60;1.00
10129;DHT22;5104;50.720;7.044;2023-02-03T03:05:09;9.60;1.00
10129;DHT22;5104;50.720;7.044;2023-02-03T03:07:39;9.60;1.00
10129;DHT22;5104;50.720;7.044;2023-02-03T03:10:11;9.60;1.00
10129;DHT22;5104;50.720;7.044;2023-02-03T03:12:42;9.60;1.00
10129;DHT22;5104;50.720;7.044;2023-02-03T03:15:14;9.70;1.00
10129;DHT22;5104;50.720;7.044;2023-02-03T03:17:47;9.70;1.00
10129;DHT22;5104;50.720;7.044;2023-02-03T03:20:18;9.70;1.00
10129;DHT22;5104;50.720;7.044;2023-02-03T03:22:50;9.70;1.00
10129;DHT22;5104;50.720;7.044;2023-02-03T03:25:21;9.70;1.00
10129;DHT22;5104;50.720;7.044;2023-02-03T03:27:53;9.70;1.00
10129;DHT22;5104;50.720;7.044;2023-02-03T03:30:23;9.70;1.00
10129;DHT22;5104;50.720;7.044;2023-02-03T03:32:53;9.70;1.00
10129;DHT22;5104;50.720;7.044;2023-02-03T03:35:20;9.70;1.00
10129;DHT22;5104;50.720;7.044;2023-02-03T03:37:52;9.70;1.00
10129;DHT22;5104;50.720;7.044;2023-02-03T03:40:24;9.70;1.00
10129;DHT22;5104;50.720;7.044;2023-02-03T03:42:57;9.70;1.00
10129;DHT22;5104;50.720;7.044;2023-02-03T03:45:29;9.60;1.00
10129;DHT22;5104;50.720;7.044;2023-02-03T03:48:04;9.60;1.00
10129;DHT22;5104;50.720;7.044;2023-02-03T03:50:35;9.60;1.00
10129;DHT22;5104;50.720;7.044;2023-02-03T03:53:05;9.60;1.00
10129;DHT22;5104;50.720;7.044;2023-02-03T03:55:34;9.70;1.00
10129;DHT22;5104;50.720;7.044;2023-02-03T03:58:04;9.70;1.00
10129;DHT22;5104;50.720;7.044;2023-02-03T04:00:34;9.70;1.00
10129;DHT22;5104;50.720;7.044;2023-02-03T04:03:07;9.70;1.00
10129;DHT22;5104;50.720;7.044;2023-02-03T04:05:37;9.70;1.00
10129;DHT22;5104;50.720;7.044;2023-02-03T04:08:05;9.60;1.00
10129;DHT22;5104;50.720;7.044;2023-02-03T04:10:34;9.60;1.00
10129;DHT22;5104;50.720;7.044;2023-02-03T04:13:02;9.60;1.00
10129;DHT22;5104;50.720;7.044;2023-02-03T04:15:29;9.60;1.00
10129;DHT22;5104;50.720;7.044;2023-02-03T04:17:57;9.60;1.00
10129;DHT22;5104;50.720;7.044;2023-02-03T04:20:27;9.70;1.00
10129;DHT22;5104;50.720;7.044;2023-02-03T04:22:54;9.70;1.00
10129;DHT22;5104;50.720;7.044;2023-02-03T04:25:22;9.70;1.00
10129;DHT22;5104;50.720;7.044;2023-02-03T04:27:49;9.70;1.00
10129;DHT22;5104;50.720;7.044;2023-02-03T04:30:16;9.60;1.00
10129;DHT22;5104;50.720;7.044;2023-02-03T04:32:44;9.60;1.00
10129;DHT22;5104;50.720;7.044;2023-02-03T04:35:11;9.60;1.00
10129;DHT22;5104;50.720;7.044;2023-02-03T04:37:39;9.60;1.00
10129;DHT22;5104;50.720;7.044;2023-02-03T04:40:08;9.60;1.00
10129;DHT22;5104;50.720;7.044;2023-02-03T04:42:35;9.60;1.00
10129;DHT22;5104;50.720;7.044;2023-02-03T04:45:03;9.60;1.00
10129;DHT22;5104;50.720;7.044;2023-02-03T04:47:30;9.60;1.00
10129;DHT22;5104;50.720;7.044;2023-02-03T04:49:58;9.60;1.00
10129;DHT22;5104;50.720;7.044;2023-02-03T04:52:25;9.60;1.00
10129;DHT22;5104;50.720;7.044;2023-02-03T04:54:54;9.60;1.00
10129;DHT22;5104;50.720;7.044;2023-02-03T04:57:20;9.60;1.00
10129;DHT22;5104;50.720;7.044;2023-02-03T04:59:47;9.60;99.90
10129;DHT22;5104;50.720;7.044;2023-02-03T05:02:14;9.60;99.90
10129;DHT22;5104;50.720;7.044;2023-02-03T05:04:41;9.70;99.90
10129;DHT22;5104;50.720;7.044;2023-02-03T05:07:08;9.70;99.90
10129;DHT22;5104;50.720;7.044;2023-02-03T05:09:35;9.60;99.90
10129;DHT22;5104;50.720;7.044;2023-02-03T05:12:04;9.60;99.90
10129;DHT22;5104;50.720;7.044;2023-02-03T05:14:31;9.60;1.00
10129;DHT22;5104;50.720;7.044;2023-02-03T05:16:58;9.60;99.90
10129;DHT22;5104;50.720;7.044;2023-02-03T05:19:24;9.70;1.00
10129;DHT22;5104;50.720;7.044;2023-02-03T05:21:51;9.60;1.00
10129;DHT22;5104;50.720;7.044;2023-02-03T05:24:18;9.60;1.00
10129;DHT22;5104;50.720;7.044;2023-02-03T05:26:45;9.60;1.00
10129;DHT22;5104;50.720;7.044;2023-02-03T05:29:13;9.70;1.00
10129;DHT22;5104;50.720;7.044;2023-02-03T05:31:40;9.70;1.00
10129;DHT22;5104;50.720;7.044;2023-02-03T05:34:07;9.70;1.00
10129;DHT22;5104;50.720;7.044;2023-02-03T05:36:34;9.70;1.00
10129;DHT22;5104;50.720;7.044;2023-02-03T05:39:00;9.60;1.00
10129;DHT22;5104;50.720;7.044;2023-02-03T05:41:27;9.60;1.00
10129;DHT22;5104;50.720;7.044;2023-02-03T05:44:26;9.60;1.00
10129;DHT22;5104;50.720;7.044;2023-02-03T05:46:54;9.70;1.00
10129;DHT22;5104;50.720;7.044;2023-02-03T05:49:22;9.70;1.00
10129;DHT22;5104;50.720;7.044;2023-02-03T05:51:49;9.70;1.00
10129;DHT22;5104;50.720;7.044;2023-02-03T05:54:16;9.70;1.00
10129;DHT22;5104;50.720;7.044;2023-02-03T05:56:43;9.70;1.00
10129;DHT22;5104;50.720;7.044;2023-02-03T05:59:10;9.70;1.00
10129;DHT22;5104;50.720;7.044;2023-02-03T06:01:38;9.70;1.00
10129;DHT22;5104;50.720;7.044;2023-02-03T06:04:05;9.70;1.00
10129;DHT22;5104;50.720;7.044;2023-02-03T06:06:32;9.70;1.00
10129;DHT22;5104;50.720;7.044;2023-02-03T06:09:00;9.60;1.00
10129;DHT22;5104;50.720;7.044;2023-02-03T06:11:27;9.60;1.00
10129;DHT22;5104;50.720;7.044;2023-02-03T06:13:54;9.60;1.00
10129;DHT22;5104;50.720;7.044;2023-02-03T06:16:23;9.70;1.00
10129;DHT22;5104;50.720;7.044;2023-02-03T06:18:51;9.70;1.00
10129;DHT22;5104;50.720;7.044;2023-02-03T06:21:19;9.70;1.00
10129;DHT22;5104;50.720;7.044;2023-02-03T06:23:46;9.70;1.00
10129;DHT22;5104;50.720;7.044;2023-02-03T06:26:13;9.70;1.00
10129;DHT22;5104;50.720;7.044;2023-02-03T06:28:40;9.70;99.90
10129;DHT22;5104;50.720;7.044;2023-02-03T06:31:07;9.70;99.90
10129;DHT22;5104;50.720;7.044;2023-02-03T06:33:34;9.70;99.90
10129;DHT22;5104;50.720;7.044;2023-02-03T06:36:02;9.70;99.90
10129;DHT22;5104;50.720;7.044;2023-02-03T06:38:29;9.70;99.90
10129;DHT22;5104;50.720;7.044;2023-02-03T06:40:56;9.70;99.90
10129;DHT22;5104;50.720;7.044;2023-02-03T06:43:22;9.70;99.90
10129;DHT22;5104;50.720;7.044;2023-02-03T06:45:49;9.70;99.90
10129;DHT22;5104;50.720;7.044;2023-02-03T06:48:16;9.70;99.90
10129;DHT22;5104;50.720;7.044;2023-02-03T06:50:44;9.70;99.90
10129;DHT22;5104;50.720;7.044;2023-02-03T06:53:12;9.70;99.90
10129;DHT22;5104;50.720;7.044;2023-02-03T06:55:39;9.80;99.90
10129;DHT22;5104;50.720;7.044;2023-02-03T06:58:07;9.80;99.90
10129;DHT22;5104;50.720;7.044;2023-02-03T07:00:34;9.80;99.90
10129;DHT22;5104;50.720;7.044;2023-02-03T07:03:01;9.80;99.90
10129;DHT22;5104;50.720;7.044;2023-02-03T07:05:28;9.80;99.90
10129;DHT22;5104;50.720;7.044;2023-02-03T07:07:55;9.70;99.90
10129;DHT22;5104;50.720;7.044;2023-02-03T07:10:24;9.70;99.90
10129;DHT22;5104;50.720;7.044;2023-02-03T07:12:51;9.70;99.90
10129;DHT22;5104;50.720;7.044;2023-02-03T07:15:18;9.70;99.90
10129;DHT22;5104;50.720;7.044;2023-02-03T07:17:46;9.80;99.90
10129;DHT22;5104;50.720;7.044;2023-02-03T07:20:19;9.80;99.90
10129;DHT22;5104;50.720;7.044;2023-02-03T07:22:51;9.90;99.90
10129;DHT22;5104;50.720;7.044;2023-02-03T07:25:17;9.80;99.90
10129;DHT22;5104;50.720;7.044;2023-02-03T07:27:46;9.80;99.90
10129;DHT22;5104;50.720;7.044;2023-02-03T07:30:13;9.80;99.90
10129;DHT22;5104;50.720;7.044;2023-02-03T07:32:40;9.90;99.90
10129;DHT22;5104;50.720;7.044;2023-02-03T07:35:07;9.90;99.90
10129;DHT22;5104;50.720;7.044;2023-02-03T07:37:34;9.90;99.90
10129;DHT22;5104;50.720;7.044;2023-02-03T07:40:01;10.00;99.90
10129;DHT22;5104;50.720;7.044;2023-02-03T07:42:27;10.00;99.90
10129;DHT22;5104;50.720;7.044;2023-02-03T07:44:56;10.00;99.90
10129;DHT22;5104;50.720;7.044;2023-02-03T07:47:23;10.00;99.90
10129;DHT22;5104;50.720;7.044;2023-02-03T07:49:49;10.00;99.90
10129;DHT22;5104;50.720;7.044;2023-02-03T07:52:16;10.00;99.90
10129;DHT22;5104;50.720;7.044;2023-02-03T07:54:43;10.10;85.00
10129;DHT22;5104;50.720;7.044;2023-02-03T07:57:10;10.10;67.50
10129;DHT22;5104;50.720;7.044;2023-02-03T07:59:37;10.10;43.30
10129;DHT22;5104;50.720;7.044;2023-02-03T08:02:05;10.20;41.90
10129;DHT22;5104;50.720;7.044;2023-02-03T08:04:33;10.20;33.30
10129;DHT22;5104;50.720;7.044;2023-02-03T08:07:00;10.20;48.70
10129;DHT22;5104;50.720;7.044;2023-02-03T08:09:27;10.20;68.50
10129;DHT22;5104;50.720;7.044;2023-02-03T08:11:54;10.30;39.30
10129;DHT22;5104;50.720;7.044;2023-02-03T08:14:20;10.20;34.60
10129;DHT22;5104;50.720;7.044;2023-02-03T08:16:48;10.30;23.70
10129;DHT22;5104;50.720;7.044;2023-02-03T08:19:16;10.30;43.90
10129;DHT22;5104;50.720;7.044;2023-02-03T08:21:43;10.30;39.70
10129;DHT22;5104;50.720;7.044;2023-02-03T08:24:10;10.30;31.90
10129;DHT22;5104;50.720;7.044;2023-02-03T08:26:37;10.30;57.60
10129;DHT22;5104;50.720;7.044;2023-02-03T08:29:04;10.30;97.60
10129;DHT22;5104;50.720;7.044;2023-02-03T08:31:31;10.30;94.90
10129;DHT22;5104;50.720;7.044;2023-02-03T08:33:58;10.30;99.90
10129;DHT22;5104;50.720;7.044;2023-02-03T08:36:26;10.30;65.80
10129;DHT22;5104;50.720;7.044;2023-02-03T08:38:53;10.30;92.30
10129;DHT22;5104;50.720;7.044;2023-02-03T08:41:19;10.30;99.10
10129;DHT22;5104;50.720;7.044;2023-02-03T08:43:46;10.30;72.00
10129;DHT22;5104;50.720;7.044;2023-02-03T08:46:13;10.40;86.60
10129;DHT22;5104;50.720;7.044;2023-02-03T08:48:40;10.40;99.90
10129;DHT22;5104;50.720;7.044;2023-02-03T08:51:11;10.30;93.30
10129;DHT22;5104;50.720;7.044;2023-02-03T08:53:40;10.40;83.40
10129;DHT22;5104;50.720;7.044;2023-02-03T08:56:07;10.40;94.00
10129;DHT22;5104;50.720;7.044;2023-02-03T08:58:35;10.40;46.80
10129;DHT22;5104;50.720;7.044;2023-02-03T09:01:06;10.50;59.10
10129;DHT22;5104;50.720;7.044;2023-02-03T09:03:34;10.40;65.10
10129;DHT22;5104;50.720;7.044;2023-02-03T09:06:01;10.50;49.70
10129;DHT22;5104;50.720;7.044;2023-02-03T09:08:28;10.40;61.40
10129;DHT22;5104;50.720;7.044;2023-02-03T09:10:56;10.50;44.00
10129;DHT22;5104;50.720;7.044;2023-02-03T09:13:23;10.50;13.60
10129;DHT22;5104;50.720;7.044;2023-02-03T09:15:50;10.50;29.90
10129;DHT22;5104;50.720;7.044;2023-02-03T09:18:17;10.50;34.40
10129;DHT22;5104;50.720;7.044;2023-02-03T09:20:44;10.60;51.00
10129;DHT22;5104;50.720;7.044;2023-02-03T09:23:11;10.50;45.80
10129;DHT22;5104;50.720;7.044;2023-02-03T09:25:38;10.50;99.90
10129;DHT22;5104;50.720;7.044;2023-02-03T09:28:06;10.50;99.90
10129;DHT22;5104;50.720;7.044;2023-02-03T09:30:33;10.50;99.90
10129;DHT22;5104;50.720;7.044;2023-02-03T09:33:00;10.60;99.90
10129;DHT22;5104;50.720;7.044;2023-02-03T09:35:27;10.60;99.90
10129;DHT22;5104;50.720;7.044;2023-02-03T09:37:54;10.50;99.90
10129;DHT22;5104;50.720;7.044;2023-02-03T09:40:25;10.50;99.90
10129;DHT22;5104;50.720;7.044;2023-02-03T09:43:19;10.50;99.90
10129;DHT22;5104;50.720;7.044;2023-02-03T09:45:49;10.50;99.90
10129;DHT22;5104;50.720;7.044;2023-02-03T09:48:21;10.50;99.90
10129;DHT22;5104;50.720;7.044;2023-02-03T09:50:49;10.50;99.90
10129;DHT22;5104;50.720;7.044;2023-02-03T09:53:24;10.50;99.90
10129;DHT22;5104;50.720;7.044;2023-02-03T09:55:54;10.50;99.90
10129;DHT22;5104;50.720;7.044;2023-02-03T09:58:22;10.60;99.90
10129;DHT22;5104;50.720;7.044;2023-02-03T10:00:51;10.60;99.90
10129;DHT22;5104;50.720;7.044;2023-02-03T10:03:26;10.60;99.90
10129;DHT22;5104;50.720;7.044;2023-02-03T10:06:04;10.50;99.90
10129;DHT22;5104;50.720;7.044;2023-02-03T10:08:47;10.50;1.00
10129;DHT22;5104;50.720;7.044;2023-02-03T10:11:26;10.50;1.00
10129;DHT22;5104;50.720;7.044;2023-02-03T10:14:07;10.60;1.00
10129;DHT22;5104;50.720;7.044;2023-02-03T10:16:48;10.60;1.00
10129;DHT22;5104;50.720;7.044;2023-02-03T10:19:22;10.50;1.00
10129;DHT22;5104;50.720;7.044;2023-02-03T10:21:56;10.50;1.00
10129;DHT22;5104;50.720;7.044;2023-02-03T10:24:28;10.50;1.00
10129;DHT22;5104;50.720;7.044;2023-02-03T10:26:59;10.50;1.00
10129;DHT22;5104;50.720;7.044;2023-02-03T10:29:33;10.50;1.00
10129;DHT22;5104;50.720;7.044;2023-02-03T10:32:01;10.50;1.00
10129;DHT22;5104;50.720;7.044;2023-02-03T10:34:28;10.50;1.00
10129;DHT22;5104;50.720;7.044;2023-02-03T10:36:56;10.50;1.00
10129;DHT22;5104;50.720;7.044;2023-02-03T10:39:30;10.50;1.00
10129;DHT22;5104;50.720;7.044;2023-02-03T10:41:59;10.50;1.00
10129;DHT22;5104;50.720;7.044;2023-02-03T10:44:34;10.60;1.00
10129;DHT22;5104;50.720;7.044;2023-02-03T10:47:07;10.60;1.00
10129;DHT22;5104;50.720;7.044;2023-02-03T10:49:34;10.60;1.00
10129;DHT22;5104;50.720;7.044;2023-02-03T10:52:01;10.70;1.00
10129;DHT22;5104;50.720;7.044;2023-02-03T10:54:31;10.70;1.00
10129;DHT22;5104;50.720;7.044;2023-02-03T10:57:02;10.80;1.00
10129;DHT22;5104;50.720;7.044;2023-02-03T10:59:34;11.00;1.00
10129;DHT22;5104;50.720;7.044;2023-02-03T11:02:07;11.00;1.00
10129;DHT22;5104;50.720;7.044;2023-02-03T11:04:34;11.20;1.00
10129;DHT22;5104;50.720;7.044;2023-02-03T11:07:03;11.20;1.00
10129;DHT22;5104;50.720;7.044;2023-02-03T11:09:33;11.20;1.00
10129;DHT22;5104;50.720;7.044;2023-02-03T11:12:11;11.20;1.00
10129;DHT22;5104;50.720;7.044;2023-02-03T11:14:40;11.20;1.00
10129;DHT22;5104;50.720;7.044;2023-02-03T11:17:15;11.30;1.00
10129;DHT22;5104;50.720;7.044;2023-02-03T11:19:43;11.30;1.00
10129;DHT22;5104;50.720;7.044;2023-02-03T11:22:12;11.30;1.00
10129;DHT22;5104;50.720;7.044;2023-02-03T11:24:40;11.40;1.00
10129;DHT22;5104;50.720;7.044;2023-02-03T11:27:10;11.50;99.90
10129;DHT22;5104;50.720;7.044;2023-02-03T11:29:43;11.60;99.90
10129;DHT22;5104;50.720;7.044;2023-02-03T11:32:17;11.70;99.90
10129;DHT22;5104;50.720;7.044;2023-02-03T11:34:48;11.50;99.90
10129;DHT22;5104;50.720;7.044;2023-02-03T11:37:26;11.30;1.00
10129;DHT22;5104;50.720;7.044;2023-02-03T11:40:21;11.30;1.00
10129;DHT22;5104;50.720;7.044;2023-02-03T11:42:57;11.30;1.00
10129;DHT22;5104;50.720;7.044;2023-02-03T11:45:26;11.30;1.00
10129;DHT22;5104;50.720;7.044;2023-02-03T11:47:58;11.30;1.00
10129;DHT22;5104;50.720;7.044;2023-02-03T11:50:29;11.20;1.00
10129;DHT22;5104;50.720;7.044;2023-02-03T11:53:15;11.20;1.00
10129;DHT22;5104;50.720;7.044;2023-02-03T11:55:54;11.10;1.00
10129;DHT22;5104;50.720;7.044;2023-02-03T11:58:40;11.10;1.00
10129;DHT22;5104;50.720;7.044;2023-02-03T12:01:16;11.10;1.00
10129;DHT22;5104;50.720;7.044;2023-02-03T12:04:09;11.10;1.00
10129;DHT22;5104;50.720;7.044;2023-02-03T12:06:59;11.10;2.90
10129;DHT22;5104;50.720;7.044;2023-02-03T12:09:36;11.00;1.00
10129;DHT22;5104;50.720;7.044;2023-02-03T12:12:35;10.90;99.90
10129;DHT22;5104;50.720;7.044;2023-02-03T12:15:23;10.90;99.90
10129;DHT22;5104;50.720;7.044;2023-02-03T12:18:07;10.90;99.90
10129;DHT22;5104;50.720;7.044;2023-02-03T12:20:55;10.90;99.90
10129;DHT22;5104;50.720;7.044;2023-02-03T12:23:34;10.90;1.00
10129;DHT22;5104;50.720;7.044;2023-02-03T12:26:14;10.70;1.00
10129;DHT22;5104;50.720;7.044;2023-02-03T12:28:47;10.80;1.00
10129;DHT22;5104;50.720;7.044;2023-02-03T12:31:22;10.70;1.00
10129;DHT22;5104;50.720;7.044;2023-02-03T12:34:00;10.80;1.00
10129;DHT22;5104;50.720;7.044;2023-02-03T12:36:34;10.80;1.00
10129;DHT22;5104;50.720;7.044;2023-02-03T12:39:09;10.80;1.00
10129;DHT22;5104;50.720;7.044;2023-02-03T12:41:42;10.80;1.00
10129;DHT22;5104;50.720;7.044;2023-02-03T12:44:16;10.80;1.00
10129;DHT22;5104;50.720;7.044;2023-02-03T12:46:49;10.80;1.00
10129;DHT22;5104;50.720;7.044;2023-02-03T12:49:27;10.80;1.00
10129;DHT22;5104;50.720;7.044;2023-02-03T12:52:00;10.80;1.00
10129;DHT22;5104;50.720;7.044;2023-02-03T12:54:37;10.70;1.00
10129;DHT22;5104;50.720;7.044;2023-02-03T12:57:14;10.70;1.00
10129;DHT22;5104;50.720;7.044;2023-02-03T12:59:54;10.70;1.00
10129;DHT22;5104;50.720;7.044;2023-02-03T13:02:26;10.70;1.00
10129;DHT22;5104;50.720;7.044;2023-02-03T13:04:58;10.70;1.00
10129;DHT22;5104;50.720;7.044;2023-02-03T13:07:31;10.70;1.00
10129;DHT22;5104;50.720;7.044;2023-02-03T13:10:04;10.80;1.00
10129;DHT22;5104;50.720;7.044;2023-02-03T13:12:36;10.80;1.00
10129;DHT22;5104;50.720;7.044;2023-02-03T13:15:18;10.90;1.00
10129;DHT22;5104;50.720;7.044;2023-02-03T13:17:51;10.90;1.00
10129;DHT22;5104;50.720;7.044;2023-02-03T13:20:21;10.80;1.00
10129;DHT22;5104;50.720;7.044;2023-02-03T13:22:49;10.90;1.00
10129;DHT22;5104;50.720;7.044;2023-02-03T13:25:21;10.80;1.00
10129;DHT22;5104;50.720;7.044;2023-02-03T13:27:54;10.70;99.90
10129;DHT22;5104;50.720;7.044;2023-02-03T13:30:35;10.60;1.00
10129;DHT22;5104;50.720;7.044;2023-02-03T13:33:29;10.70;1.00
10129;DHT22;5104;50.720;7.044;2023-02-03T13:36:08;10.70;1.00
10129;DHT22;5104;50.720;7.044;2023-02-03T13:38:54;10.60;1.00
10129;DHT22;5104;50.720;7.044;2023-02-03T13:41:29;10.60;56.00
10129;DHT22;5104;50.720;7.044;2023-02-03T13:44:02;10.60;1.00
10129;DHT22;5104;50.720;7.044;2023-02-03T13:46:32;10.60;1.00
10129;DHT22;5104;50.720;7.044;2023-02-03T13:49:02;10.60;1.00
10129;DHT22;5104;50.720;7.044;2023-02-03T13:51:32;10.60;1.00
10129;DHT22;5104;50.720;7.044;2023-02-03T13:54:02;10.60;1.00
10129;DHT22;5104;50.720;7.044;2023-02-03T13:56:30;10.60;14.60
10129;DHT22;5104;50.720;7.044;2023-02-03T13:59:00;10.50;1.00
10129;DHT22;5104;50.720;7.044;2023-02-03T14:01:31;10.40;99.90
10129;DHT22;5104;50.720;7.044;2023-02-03T14:04:00;10.40;99.90
10129;DHT22;5104;50.720;7.044;2023-02-03T14:06:56;10.40;1.00
10129;DHT22;5104;50.720;7.044;2023-02-03T14:09:39;10.30;10.00
10129;DHT22;5104;50.720;7.044;2023-02-03T14:15:20;10.20;99.90
10129;DHT22;5104;50.720;7.044;2023-02-03T14:17:59;10.20;99.90
10129;DHT22;5104;50.720;7.044;2023-02-03T14:20:55;10.20;1.00
10129;DHT22;5104;50.720;7.044;2023-02-03T14:23:27;10.20;1.00
10129;DHT22;5104;50.720;7.044;2023-02-03T14:25:57;10.10;1.00
10129;DHT22;5104;50.720;7.044;2023-02-03T14:28:30;10.10;99.90
10129;DHT22;5104;50.720;7.044;2023-02-03T14:31:12;10.20;99.90
10129;DHT22;5104;50.720;7.044;2023-02-03T14:36:48;10.10;99.90
10129;DHT22;5104;50.720;7.044;2023-02-03T14:43:02;10.10;99.90
10129;DHT22;5104;50.720;7.044;2023-02-03T14:46:01;10.10;99.90
10129;DHT22;5104;50.720;7.044;2023-02-03T14:48:45;10.00;99.90
10129;DHT22;5104;50.720;7.044;2023-02-03T14:51:25;10.00;99.90
10129;DHT22;5104;50.720;7.044;2023-02-03T14:54:20;10.00;99.90
10129;DHT22;5104;50.720;7.044;2023-02-03T14:57:00;10.00;99.90
10129;DHT22;5104;50.720;7.044;2023-02-03T14:59:46;10.00;99.90
10129;DHT22;5104;50.720;7.044;2023-02-03T15:02:17;9.90;99.90
10129;DHT22;5104;50.720;7.044;2023-02-03T15:04:44;9.90;99.90
10129;DHT22;5104;50.720;7.044;2023-02-03T15:07:37;9.90;99.90
10129;DHT22;5104;50.720;7.044;2023-02-03T15:10:14;9.90;99.90
10129;DHT22;5104;50.720;7.044;2023-02-03T15:12:46;9.90;99.90
10129;DHT22;5104;50.720;7.044;2023-02-03T15:15:24;9.90;99.90
10129;DHT22;5104;50.720;7.044;2023-02-03T15:17:52;9.80;99.90
10129;DHT22;5104;50.720;7.044;2023-02-03T15:20:34;9.80;99.90
10129;DHT22;5104;50.720;7.044;2023-02-03T15:23:17;9.80;99.90
10129;DHT22;5104;50.720;7.044;2023-02-03T15:25:45;9.80;99.90
10129;DHT22;5104;50.720;7.044;2023-02-03T15:28:16;9.80;99.90
10129;DHT22;5104;50.720;7.044;2023-02-03T15:30:46;9.80;99.90
10129;DHT22;5104;50.720;7.044;2023-02-03T15:33:16;9.80;99.90
10129;DHT22;5104;50.720;7.044;2023-02-03T15:35:48;9.80;99.90
10129;DHT22;5104;50.720;7.044;2023-02-03T15:38:18;9.90;99.90
10129;DHT22;5104;50.720;7.044;2023-02-03T15:40:48;9.90;99.90
10129;DHT22;5104;50.720;7.044;2023-02-03T15:43:21;9.90;99.90
10129;DHT22;5104;50.720;7.044;2023-02-03T15:45:59;10.00;99.90
10129;DHT22;5104;50.720;7.044;2023-02-03T15:48:31;10.00;99.90
10129;DHT22;5104;50.720;7.044;2023-02-03T15:51:06;10.00;99.90
10129;DHT22;5104;50.720;7.044;2023-02-03T15:53:43;10.00;99.90
10129;DHT22;5104;50.720;7.044;2023-02-03T15:56:21;10.10;99.90
10129;DHT22;5104;50.720;7.044;2023-02-03T15:58:52;10.10;99.90
10129;DHT22;5104;50.720;7.044;2023-02-03T16:01:22;10.10;99.90
10129;DHT22;5104;50.720;7.044;2023-02-03T16:03:52;10.10;99.90
10129;DHT22;5104;50.720;7.044;2023-02-03T16:06:25;10.10;91.80
10129;DHT22;5104;50.720;7.044;2023-02-03T16:08:52;10.00;97.10
10129;DHT22;5104;50.720;7.044;2023-02-03T16:11:29;10.00;95.60
10129;DHT22;5104;50.720;7.044;2023-02-03T16:13:57;10.10;1.00
10129;DHT22;5104;50.720;7.044;2023-02-03T16:16:34;10.00;1.00
10129;DHT22;5104;50.720;7.044;2023-02-03T16:19:03;10.00;1.00
10129;DHT22;5104;50.720;7.044;2023-02-03T16:21:33;10.10;1.00
10129;DHT22;5104;50.720;7.044;2023-02-03T16:24:02;10.10;1.00
10129;DHT22;5104;50.720;7.044;2023-02-03T16:26:30;10.00;1.00
10129;DHT22;5104;50.720;7.044;2023-02-03T16:29:14;10.00;1.00
10129;DHT22;5104;50.720;7.044;2023-02-03T16:32:00;9.90;99.90
10129;DHT22;5104;50.720;7.044;2023-02-03T16:34:45;9.90;99.90
10129;DHT22;5104;50.720;7.044;2023-02-03T16:37:31;9.80;99.90
10129;DHT22;5104;50.720;7.044;2023-02-03T16:40:18;9.90;99.90
10129;DHT22;5104;50.720;7.044;2023-02-03T16:43:04;9.90;99.90